Weather History For Prescott AZ
This page updates 5 minutes after midnight. GMT -7
Station: KPRC0 Rows: 26
| Year | Date | Temp (°F) | Tmin (°F) | Tmax (°F) | RH% | Prcp | Snow | Wind | Gust | Pres | Sun | Cloud |
|---|---|---|---|---|---|---|---|---|---|---|---|---|
| 2000 | 2000-03-15 | 53.2 | 36.0 | 66.9 | 39 | — | — | 13.9 | — | 29.82 | — | 2 |
| 2001 | 2001-03-15 | 44.1 | 27.0 | 57.9 | 37 | — | — | 7.4 | — | 29.96 | — | 0 |
| 2002 | 2002-03-15 | 35.1 | 21.2 | 48.2 | 25 | — | — | 11.7 | — | 29.85 | — | 0 |
| 2003 | 2003-03-15 | 50.7 | 42.8 | 60.8 | 51 | — | — | 14.8 | — | 29.78 | — | 4 |
| 2004 | 2004-03-15 | 57.0 | 41.0 | 71.6 | 33 | — | — | 8.8 | — | 30.03 | — | 0 |
| 2005 | 2005-03-15 | 37.0 | 25.0 | 48.9 | 41 | 0.0 | — | — | — | 30.00 | — | — |
| 2006 | 2006-03-15 | 47.3 | 35.1 | 57.9 | 35 | 0.0 | — | 11.4 | — | 29.92 | — | 0 |
| 2007 | 2007-03-15 | 60.6 | 39.0 | 80.1 | 22 | 0.0 | — | 8.3 | — | 29.99 | — | 0 |
| 2008 | 2008-03-15 | 45.3 | 36.0 | 54.0 | 17 | 0.0 | — | 23.2 | — | 29.67 | — | 1 |
| 2009 | 2009-03-15 | 46.4 | 30.0 | 60.1 | 36 | 0.0 | — | 12.2 | — | 29.96 | — | 0 |
| 2010 | 2010-03-15 | 45.3 | 28.9 | 59.0 | 50 | 0.0 | — | 7.8 | — | 30.20 | — | 0 |
| 2011 | 2011-03-15 | 55.4 | 41.0 | 71.1 | 38 | 0.0 | — | 10.1 | — | 29.99 | — | 0 |
| 2012 | 2012-03-15 | 52.5 | 34.0 | 70.0 | 25 | 0.0 | — | 9.0 | — | 30.02 | — | 0 |
| 2013 | 2013-03-15 | 59.0 | 43.0 | 77.0 | 32 | 0.0 | — | 11.0 | — | 29.98 | — | 0 |
| 2014 | 2014-03-15 | 50.4 | 34.0 | 64.0 | 27 | 0.0 | — | 21.2 | — | 30.10 | — | 0 |
| 2015 | 2015-03-15 | 55.8 | 39.0 | 72.0 | 36 | 0.0 | — | 7.4 | — | 30.10 | — | 0 |
| 2016 | 2016-03-15 | 50.0 | 36.0 | 66.0 | 41 | 0.0 | — | 8.1 | — | 30.01 | — | 0 |
| 2017 | 2017-03-15 | 58.6 | 41.0 | 75.9 | 33 | 0.0 | — | 11.2 | — | 30.09 | — | 0 |
| 2018 | 2018-03-15 | 42.4 | 35.1 | 46.9 | 67 | — | — | 18.0 | — | 29.80 | — | — |
| 2019 | 2019-03-15 | 41.5 | 25.0 | 55.0 | 49 | 0.0 | — | 11.1 | — | 30.10 | — | — |
| 2020 | 2020-03-15 | 46.0 | 34.0 | 59.0 | 67 | 0.0 | — | 11.1 | — | 30.03 | — | 1 |
| 2021 | 2021-03-15 | 44.2 | 37.0 | 53.1 | 48 | — | — | 18.2 | — | 29.81 | — | — |
| 2022 | 2022-03-15 | 50.7 | 30.9 | 71.1 | 34 | 0.0 | — | 11.2 | — | 30.12 | — | 0 |
| 2023 | 2023-03-15 | 47.1 | 39.0 | 52.0 | 82 | — | — | 14.6 | — | 29.84 | — | 8 |
| 2024 | 2024-03-15 | 38.1 | 32.0 | 45.0 | 86 | — | — | 12.2 | — | 29.77 | — | 6 |
| 2025 | 2025-03-15 | 37.4 | 28.9 | 48.0 | 68 | — | — | 14.6 | — | 29.91 | — | — |